createdAt,value
2018-12-29T00:09:00.000Z,63.20
2018-12-29T00:19:23.395Z,61.30
2018-12-29T00:29:46.811Z,63.43
2018-12-29T00:40:10.207Z,57.17
2018-12-29T00:50:33.612Z,62.93
2018-12-29T01:00:57.041Z,61.27
2018-12-29T01:11:20.447Z,60.67
2018-12-29T01:21:43.915Z,57.33
2018-12-29T01:32:07.322Z,57.90
2018-12-29T01:42:30.727Z,58.20
2018-12-29T01:52:54.119Z,53.53
2018-12-29T02:03:17.775Z,58.37
2018-12-29T02:13:41.182Z,54.47
2018-12-29T02:24:04.939Z,54.20
2018-12-29T02:34:28.401Z,59.63
2018-12-29T02:44:51.808Z,57.03
2018-12-29T02:55:15.251Z,60.57
2018-12-29T03:05:38.639Z,55.63
2018-12-29T03:16:02.069Z,64.77
2018-12-29T03:26:25.559Z,58.33
2018-12-29T03:36:48.990Z,65.90
2018-12-29T03:47:12.389Z,62.10
2018-12-29T03:57:35.773Z,71.07
2018-12-29T04:07:59.179Z,63.73
2018-12-29T04:18:22.618Z,67.17
2018-12-29T04:28:44.819Z,68.75
2018-12-29T04:39:19.578Z,77.03
2018-12-29T04:49:42.987Z,89.43
2018-12-29T05:00:06.999Z,92.75
2018-12-29T05:10:49.383Z,92.80
2018-12-29T05:21:12.791Z,84.70
2018-12-29T05:31:35.155Z,82.78
2018-12-29T05:41:57.543Z,85.40
2018-12-29T06:02:59.828Z,73.03
2018-12-29T06:13:23.251Z,68.50
2018-12-29T06:23:46.732Z,75.80
2018-12-29T06:34:10.126Z,69.97
2018-12-29T06:44:33.551Z,68.77
2018-12-29T06:54:56.948Z,67.53
2018-12-29T07:05:20.420Z,61.73
2018-12-29T07:15:43.829Z,62.93
2018-12-29T07:26:07.267Z,59.70
2018-12-29T07:36:30.686Z,59.80
2018-12-29T07:46:54.195Z,64.30
2018-12-29T08:07:51.738Z,59.90
2018-12-29T08:18:15.173Z,66.57
2018-12-29T08:38:53.672Z,57.57
2018-12-29T08:49:17.068Z,56.67
2018-12-29T08:59:43.250Z,63.93
2018-12-29T09:10:06.660Z,57.43
2018-12-29T09:20:30.146Z,54.13
2018-12-29T09:30:53.539Z,57.07
2018-12-29T09:41:17.032Z,59.13
2018-12-29T09:51:40.467Z,56.27
2018-12-29T10:02:02.861Z,60.53
2018-12-29T10:12:26.259Z,58.57
2018-12-29T10:22:49.647Z,55.00
2018-12-29T10:33:13.050Z,55.77
2018-12-29T10:43:36.508Z,53.30
2018-12-29T10:54:01.287Z,53.67
2018-12-29T11:04:31.253Z,52.27
2018-12-29T11:14:54.755Z,47.73
2018-12-29T11:25:19.064Z,50.43
2018-12-29T11:46:22.284Z,44.87
2018-12-29T11:56:45.756Z,44.57
2018-12-29T12:07:09.253Z,43.75
2018-12-29T12:17:31.465Z,40.03
2018-12-29T12:38:30.461Z,36.73
2018-12-29T12:48:53.963Z,33.93
2018-12-29T12:59:17.613Z,31.47
2018-12-29T13:09:49.131Z,33.47
2018-12-29T13:30:48.883Z,29.30
2018-12-29T13:41:11.352Z,32.78
2018-12-29T13:51:34.840Z,31.70
2018-12-29T14:01:58.327Z,31.77
2018-12-29T14:12:21.747Z,26.93
2018-12-29T14:22:45.219Z,27.30
2018-12-29T14:33:20.597Z,22.98
2018-12-29T14:43:44.399Z,24.90
2018-12-29T15:04:43.136Z,29.13
2018-12-29T15:15:06.591Z,30.40
2018-12-29T15:25:30.080Z,27.23
2018-12-29T15:35:52.600Z,25.13
2018-12-29T15:46:16.108Z,28.20
2018-12-29T15:56:39.607Z,42.33
2018-12-29T16:07:03.081Z,33.73
2018-12-29T16:17:34.959Z,33.27
2018-12-29T16:27:58.460Z,33.77
2018-12-29T16:38:30.190Z,29.43
2018-12-29T16:49:06.655Z,31.90
2018-12-29T16:59:34.705Z,29.73
2018-12-29T17:10:04.999Z,32.53
2018-12-29T17:20:28.517Z,33.75
2018-12-29T17:30:52.069Z,32.35
2018-12-29T17:51:51.023Z,41.37
2018-12-29T18:02:14.523Z,42.80
2018-12-29T18:12:38.031Z,49.00
2018-12-29T18:23:01.658Z,52.13
2018-12-29T18:33:25.219Z,50.93
2018-12-29T18:43:56.563Z,62.53
2018-12-29T18:54:20.072Z,55.90
2018-12-29T19:04:43.579Z,51.27
2018-12-29T19:15:07.638Z,55.95
2018-12-29T19:25:39.175Z,48.70
2018-12-29T19:46:41.355Z,48.37
2018-12-29T19:57:04.855Z,52.13
2018-12-29T20:07:37.001Z,43.60
2018-12-29T20:18:00.478Z,40.63
2018-12-29T20:28:23.964Z,43.13
2018-12-29T20:38:47.444Z,34.10
2018-12-29T20:49:10.967Z,26.70
2018-12-29T20:59:35.340Z,13.30
2018-12-29T21:09:58.875Z,15.70
2018-12-29T21:20:22.338Z,15.10
2018-12-29T21:30:45.825Z,19.32
2018-12-29T21:41:09.296Z,20.27
2018-12-29T21:51:32.909Z,21.43
2018-12-29T22:02:04.229Z,15.63
2018-12-29T22:12:27.646Z,18.27
2018-12-29T22:22:51.130Z,16.43
2018-12-29T22:33:14.875Z,19.57
2018-12-29T22:43:38.363Z,15.83
2018-12-29T22:54:01.834Z,11.60
2018-12-29T23:04:33.295Z,19.43
2018-12-29T23:14:56.763Z,16.50
2018-12-29T23:25:20.270Z,15.80
2018-12-29T23:35:43.789Z,20.30
2018-12-29T23:46:15.672Z,17.40
2018-12-29T23:56:39.180Z,18.70
